Time;durP1;ratioP1;P1;durP2;ratioP2;P2;SDS_P1;SDS_P2;PMS_P1;PMS_P2;Temp;Humidity;BMP_temperature;BMP_pressure;BME280_temperature;BME280_humidity;BME280_pressure;Samples;Min_cycle;Max_cycle;Signal;HPM_P1;HPM_P2
2024/02/03 00:02:02;;;;;;;3.10;2.13;;;6.50;1.00;;;;;;4952989;28;20195;-70
2024/02/03 00:04:30;;;;;;;2.43;2.23;;;6.50;1.00;;;;;;4953134;28;20214;-68
2024/02/03 00:06:55;;;;;;;2.00;1.33;;;6.50;1.00;;;;;;4951588;29;20178;-69
2024/02/03 00:09:21;;;;;;;2.00;1.70;;;6.60;1.00;;;;;;4952952;28;20421;-68
2024/02/03 00:11:46;;;;;;;5.27;2.33;;;6.80;1.00;;;;;;4951695;29;20223;-70
2024/02/03 00:14:12;;;;;;;2.53;1.90;;;7.00;1.00;;;;;;4953065;28;20180;-68
2024/02/03 00:16:37;;;;;;;3.20;2.00;;;7.00;1.00;;;;;;4952843;28;20203;-67
2024/02/03 00:19:03;;;;;;;1.83;1.63;;;7.00;1.00;;;;;;4951646;29;20367;-68
2024/02/03 00:21:29;;;;;;;2.13;1.63;;;7.00;1.00;;;;;;4953023;28;20684;-68
2024/02/03 00:23:54;;;;;;;2.13;1.77;;;7.00;1.00;;;;;;4953029;28;20188;-68
2024/02/03 00:26:20;;;;;;;5.50;1.93;;;7.10;1.00;;;;;;4952929;28;20545;-68
2024/02/03 00:28:45;;;;;;;2.10;1.77;;;7.00;1.00;;;;;;4953127;28;20186;-68
2024/02/03 00:31:11;;;;;;;2.90;1.73;;;7.00;1.00;;;;;;4952942;28;20208;-68
2024/02/03 00:33:36;;;;;;;2.23;1.40;;;7.00;1.00;;;;;;4952981;28;20191;-68
2024/02/03 00:36:03;;;;;;;2.37;1.63;;;7.00;1.00;;;;;;4952890;28;20208;-69
2024/02/03 00:38:28;;;;;;;1.60;1.47;;;7.00;1.00;;;;;;4953142;28;20176;-68
2024/02/03 00:40:54;;;;;;;2.10;1.83;;;7.10;1.00;;;;;;4953402;28;20824;-68
2024/02/03 00:43:20;;;;;;;2.20;2.00;;;7.10;1.00;;;;;;4956629;29;20180;-67
2024/02/03 00:45:46;;;;;;;1.80;1.50;;;7.10;1.00;;;;;;4987210;28;20171;-68
2024/02/03 00:48:12;;;;;;;2.00;1.53;;;7.20;1.00;;;;;;4956402;28;20465;-68
2024/02/03 00:50:37;;;;;;;1.90;1.70;;;7.30;1.00;;;;;;4956389;29;20250;-68
2024/02/03 00:53:03;;;;;;;1.83;1.63;;;7.30;1.00;;;;;;4956318;28;20896;-68
2024/02/03 00:55:29;;;;;;;2.00;1.63;;;7.20;1.00;;;;;;4956611;28;20520;-68
2024/02/03 00:57:54;;;;;;;2.50;2.20;;;7.20;1.00;;;;;;4954933;29;20187;-68
2024/02/03 01:00:23;;;;;;;1.93;1.73;;;7.10;1.00;;;;;;4955729;28;20295;-68
2024/02/03 01:02:49;;;;;;;1.90;1.70;;;7.10;1.00;;;;;;4955916;28;20506;-68
2024/02/03 01:05:14;;;;;;;2.67;2.10;;;7.10;1.00;;;;;;4955926;28;20416;-68
2024/02/03 01:07:40;;;;;;;2.70;2.03;;;6.90;1.00;;;;;;4955794;28;20429;-68
2024/02/03 01:10:06;;;;;;;2.70;1.97;;;6.90;1.00;;;;;;4955430;28;20186;-68
2024/02/03 01:12:31;;;;;;;2.67;1.80;;;6.70;1.00;;;;;;4977822;23;20238;-72
2024/02/03 01:14:57;;;;;;;2.07;1.83;;;6.80;1.00;;;;;;4955629;29;20211;-73
2024/02/03 01:17:23;;;;;;;1.87;1.53;;;6.70;1.00;;;;;;4955283;29;20191;-71
2024/02/03 01:19:48;;;;;;;2.30;1.70;;;6.60;1.00;;;;;;4937917;29;20225;-73
2024/02/03 01:22:14;;;;;;;2.23;1.57;;;6.50;1.00;;;;;;4950245;29;20229;-71
2024/02/03 01:24:39;;;;;;;2.47;2.00;;;6.40;1.00;;;;;;4955337;29;20175;-72
2024/02/03 01:27:05;;;;;;;2.23;1.60;;;6.30;1.00;;;;;;4953843;29;20184;-71
2024/02/03 01:29:30;;;;;;;2.00;1.70;;;6.30;1.00;;;;;;4954001;29;20568;-72
2024/02/03 01:31:56;;;;;;;2.00;1.60;;;6.20;1.00;;;;;;4955201;28;20202;-72
2024/02/03 01:34:22;;;;;;;1.80;1.30;;;6.20;1.00;;;;;;4956528;29;20677;-73
2024/02/03 01:36:48;;;;;;;2.10;1.50;;;6.20;1.00;;;;;;4958754;29;20319;-73
2024/02/03 01:39:13;;;;;;;2.43;1.53;;;6.10;1.00;;;;;;4956655;29;20482;-73
2024/02/03 01:41:39;;;;;;;2.83;1.50;;;6.00;1.00;;;;;;4958126;28;20213;-71
2024/02/03 01:44:04;;;;;;;2.43;1.47;;;5.90;1.00;;;;;;4958422;29;20170;-73
2024/02/03 01:46:30;;;;;;;2.13;1.70;;;5.80;1.00;;;;;;4957496;29;20218;-73
2024/02/03 01:48:56;;;;;;;2.03;1.40;;;5.90;1.00;;;;;;4958352;29;20333;-72
2024/02/03 01:51:24;;;;;;;2.00;1.80;;;5.90;1.00;;;;;;4956796;28;20649;-71
2024/02/03 01:53:50;;;;;;;1.80;1.50;;;6.00;1.00;;;;;;4958288;29;20413;-72
2024/02/03 01:56:18;;;;;;;1.77;1.60;;;6.10;1.00;;;;;;4956866;29;20968;-73
2024/02/03 01:58:44;;;;;;;1.80;1.60;;;6.10;1.00;;;;;;4971069;28;20450;-72
2024/02/03 02:01:13;;;;;;;1.77;1.47;;;6.10;1.00;;;;;;4956638;28;20492;-72
2024/02/03 02:03:40;;;;;;;2.63;1.47;;;6.20;1.00;;;;;;4954946;29;20243;-74
2024/02/03 02:06:06;;;;;;;1.60;1.30;;;6.10;1.00;;;;;;4956079;29;20411;-72
2024/02/03 02:08:36;;;;;;;2.47;1.60;;;6.00;1.00;;;;;;4953961;29;20484;-72
2024/02/03 02:11:03;;;;;;;3.27;2.17;;;6.00;1.00;;;;;;4954544;28;20462;-72
2024/02/03 02:13:29;;;;;;;1.80;1.40;;;6.00;1.00;;;;;;4955398;29;20441;-70
2024/02/03 02:16:00;;;;;;;2.07;1.60;;;6.00;1.00;;;;;;4954943;29;20414;-71
2024/02/03 02:18:26;;;;;;;1.70;1.50;;;5.90;1.00;;;;;;4954190;29;20486;-71
2024/02/03 02:20:52;;;;;;;2.23;1.67;;;5.80;1.00;;;;;;4955468;28;21000;-72
2024/02/03 02:23:18;;;;;;;2.57;2.20;;;5.80;1.00;;;;;;4954396;29;20180;-72
2024/02/03 02:25:44;;;;;;;2.37;1.83;;;5.80;1.00;;;;;;4969927;28;20562;-73
2024/02/03 02:28:09;;;;;;;2.20;1.73;;;5.70;1.00;;;;;;4955078;29;20186;-71
2024/02/03 02:30:35;;;;;;;1.57;1.20;;;5.70;1.00;;;;;;4970231;28;20643;-72
2024/02/03 02:33:02;;;;;;;1.90;1.70;;;5.70;1.00;;;;;;4955308;29;20185;-72
2024/02/03 02:35:37;;;;;;;2.00;1.60;;;5.70;1.00;;;;;;4954749;29;20190;-72
2024/02/03 02:38:03;;;;;;;1.60;1.40;;;5.60;1.00;;;;;;4954260;29;20929;-72
2024/02/03 02:40:31;;;;;;;2.27;1.90;;;5.60;1.00;;;;;;4953750;28;20458;-72
2024/02/03 02:43:01;;;;;;;2.00;1.80;;;5.60;1.00;;;;;;4954117;29;20918;-73
2024/02/03 02:45:26;;;;;;;2.20;1.70;;;5.50;1.00;;;;;;4953814;29;20457;-73
2024/02/03 02:47:52;;;;;;;1.97;1.37;;;5.60;1.00;;;;;;4953560;29;20418;-71
2024/02/03 02:50:19;;;;;;;1.90;1.33;;;5.60;1.00;;;;;;4968550;28;20257;-72
2024/02/03 02:52:45;;;;;;;1.93;1.23;;;5.60;1.00;;;;;;4952352;29;20423;-70
2024/02/03 02:55:11;;;;;;;1.83;1.47;;;5.60;1.00;;;;;;4954055;29;20484;-72
2024/02/03 02:57:37;;;;;;;1.70;1.40;;;5.60;1.00;;;;;;4954047;29;20635;-71
2024/02/03 03:00:03;;;;;;;1.70;1.60;;;5.60;1.00;;;;;;4952724;29;20498;-72
2024/02/03 03:02:28;;;;;;;1.80;1.40;;;5.60;1.00;;;;;;4952308;28;20288;-72
2024/02/03 03:04:54;;;;;;;1.80;1.40;;;5.60;1.00;;;;;;4953509;28;20569;-72
2024/02/03 03:07:23;;;;;;;1.70;1.30;;;5.50;1.00;;;;;;4952346;29;20640;-72
2024/02/03 03:09:49;;;;;;;1.70;1.40;;;5.50;1.00;;;;;;4953964;29;20171;-71
2024/02/03 03:12:14;;;;;;;2.20;1.37;;;5.60;1.00;;;;;;4954091;28;20796;-72
2024/02/03 03:14:40;;;;;;;2.03;1.60;;;5.60;1.00;;;;;;4953999;29;20186;-71
2024/02/03 03:17:06;;;;;;;2.63;1.60;;;5.70;1.00;;;;;;4953608;29;20651;-71
2024/02/03 03:19:36;;;;;;;1.90;1.70;;;5.80;1.00;;;;;;4952439;29;20281;-73
2024/02/03 03:22:03;;;;;;;1.70;1.47;;;5.90;1.00;;;;;;4954356;28;20529;-72
2024/02/03 03:24:31;;;;;;;1.70;1.30;;;5.80;1.00;;;;;;4954163;29;20417;-72
2024/02/03 03:26:57;;;;;;;2.40;1.40;;;5.90;1.00;;;;;;4953930;29;20429;-72
2024/02/03 03:29:25;;;;;;;1.90;1.50;;;5.90;1.00;;;;;;4954072;29;20429;-72
2024/02/03 03:31:51;;;;;;;1.70;1.40;;;5.90;1.00;;;;;;4952723;28;20216;-73
2024/02/03 03:34:16;;;;;;;1.83;1.60;;;6.00;1.00;;;;;;4952381;29;20419;-72
2024/02/03 03:36:42;;;;;;;1.80;1.40;;;6.00;1.00;;;;;;4953058;29;20214;-70
2024/02/03 03:39:08;;;;;;;1.90;1.40;;;6.00;1.00;;;;;;4953160;29;20266;-72
2024/02/03 03:41:34;;;;;;;1.97;1.47;;;6.00;1.00;;;;;;4953010;28;20282;-72
2024/02/03 03:44:00;;;;;;;1.80;1.57;;;5.90;1.00;;;;;;4953222;29;20506;-72
2024/02/03 03:46:28;;;;;;;2.10;1.73;;;5.90;1.00;;;;;;4952787;29;20453;-71
2024/02/03 03:48:54;;;;;;;2.20;1.70;;;5.80;1.00;;;;;;4952867;29;20186;-71
2024/02/03 03:51:19;;;;;;;2.20;1.40;;;5.80;1.00;;;;;;4952793;28;20517;-72
2024/02/03 03:53:45;;;;;;;1.80;1.30;;;5.70;1.00;;;;;;4952701;29;20238;-73
2024/02/03 03:56:11;;;;;;;2.40;2.10;;;5.60;1.00;;;;;;4952589;29;20209;-71
2024/02/03 03:58:37;;;;;;;3.13;1.43;;;5.60;1.00;;;;;;4952689;29;20186;-71
2024/02/03 04:01:02;;;;;;;1.80;1.40;;;5.50;1.00;;;;;;4967370;28;20984;-70
2024/02/03 04:03:28;;;;;;;2.60;1.73;;;5.40;1.00;;;;;;4951304;29;20229;-71
2024/02/03 04:05:54;;;;;;;1.87;1.30;;;5.40;1.00;;;;;;4952847;29;20410;-71
2024/02/03 04:08:19;;;;;;;1.70;1.17;;;5.30;1.00;;;;;;4951610;29;20185;-71
2024/02/03 04:10:45;;;;;;;2.10;1.43;;;5.30;1.00;;;;;;4952359;28;20232;-70
2024/02/03 04:13:10;;;;;;;1.87;1.37;;;5.20;1.00;;;;;;4951664;29;20248;-71
2024/02/03 04:15:36;;;;;;;2.10;1.33;;;5.20;1.00;;;;;;4954618;28;20224;-71
2024/02/03 04:18:03;;;;;;;1.90;1.33;;;5.10;1.00;;;;;;4955110;29;20186;-71
2024/02/03 04:20:28;;;;;;;2.07;1.47;;;5.00;1.00;;;;;;4956850;28;20201;-71
2024/02/03 04:22:54;;;;;;;1.80;1.17;;;5.00;1.00;;;;;;4971480;28;20433;-72
2024/02/03 04:25:19;;;;;;;1.90;1.10;;;5.00;1.00;;;;;;4956763;29;20864;-71
2024/02/03 04:27:45;;;;;;;2.23;1.40;;;5.00;1.00;;;;;;4956114;29;20173;-72
2024/02/03 04:30:11;;;;;;;2.70;1.50;;;5.00;1.00;;;;;;4954969;29;20196;-71
2024/02/03 04:32:37;;;;;;;2.63;1.60;;;4.90;1.00;;;;;;4954847;28;20213;-72
2024/02/03 04:35:04;;;;;;;1.60;1.20;;;4.90;1.00;;;;;;4956208;29;20441;-71
2024/02/03 04:37:29;;;;;;;2.00;1.50;;;4.80;1.00;;;;;;4956295;29;20174;-71
2024/02/03 04:39:56;;;;;;;2.30;1.60;;;4.80;1.00;;;;;;4956083;29;20453;-71
2024/02/03 04:42:22;;;;;;;1.77;1.30;;;4.80;1.00;;;;;;4954965;28;20340;-73
2024/02/03 04:44:47;;;;;;;1.77;1.40;;;4.70;1.00;;;;;;4956481;29;20512;-71
2024/02/03 04:47:13;;;;;;;1.80;1.20;;;4.70;1.00;;;;;;4956298;29;20177;-71
2024/02/03 04:49:38;;;;;;;1.60;0.93;;;4.60;1.00;;;;;;4956564;29;20205;-71
2024/02/03 04:52:04;;;;;;;1.63;1.13;;;4.60;1.00;;;;;;4955069;28;20206;-71
2024/02/03 04:54:30;;;;;;;2.30;1.60;;;4.50;1.00;;;;;;4956522;29;20698;-71
2024/02/03 04:56:55;;;;;;;1.80;1.20;;;4.40;1.00;;;;;;4956205;29;20309;-71
2024/02/03 04:59:21;;;;;;;2.10;1.20;;;4.40;1.00;;;;;;4956454;29;20605;-72
2024/02/03 05:01:46;;;;;;;1.93;1.00;;;4.40;1.00;;;;;;4970876;28;20201;-72
2024/02/03 05:04:12;;;;;;;1.57;0.90;;;4.30;1.00;;;;;;4954409;29;20186;-72
2024/02/03 05:06:37;;;;;;;1.70;1.20;;;4.30;1.00;;;;;;4955555;29;20185;-71
2024/02/03 05:09:03;;;;;;;1.90;1.20;;;4.20;1.00;;;;;;4954214;29;20668;-71
2024/02/03 05:11:29;;;;;;;1.73;1.17;;;4.20;1.00;;;;;;4955566;28;20292;-71
2024/02/03 05:13:55;;;;;;;3.30;1.53;;;4.10;1.00;;;;;;4955899;29;20463;-71
2024/02/03 05:16:20;;;;;;;1.70;1.10;;;4.00;1.00;;;;;;4955330;29;20181;-71
2024/02/03 05:18:46;;;;;;;1.60;1.00;;;3.90;1.00;;;;;;4955496;29;20549;-71
2024/02/03 05:21:11;;;;;;;2.20;1.17;;;3.90;1.00;;;;;;4970119;28;20236;-71
2024/02/03 05:23:37;;;;;;;2.10;1.10;;;3.80;1.00;;;;;;4955727;29;20333;-71
2024/02/03 05:26:03;;;;;;;2.30;1.37;;;3.80;1.00;;;;;;4955253;28;20173;-71
2024/02/03 05:28:29;;;;;;;1.60;1.00;;;3.80;1.00;;;;;;4955599;29;20431;-72
2024/02/03 05:30:54;;;;;;;3.00;1.10;;;3.80;1.00;;;;;;4955655;28;20209;-72
2024/02/03 05:33:20;;;;;;;2.10;1.63;;;3.70;1.00;;;;;;4956108;29;20203;-71
2024/02/03 05:35:45;;;;;;;2.30;1.57;;;3.60;1.00;;;;;;4954303;29;20196;-71
2024/02/03 05:38:11;;;;;;;1.90;1.17;;;3.60;1.00;;;;;;4955668;29;20618;-71
2024/02/03 05:40:36;;;;;;;2.20;1.30;;;3.60;1.00;;;;;;4953916;28;20281;-72
2024/02/03 05:43:02;;;;;;;2.73;1.27;;;3.50;1.00;;;;;;4954749;29;20597;-70
2024/02/03 05:45:28;;;;;;;2.23;1.57;;;3.40;1.00;;;;;;4956068;29;20179;-71
2024/02/03 05:47:53;;;;;;;2.20;1.67;;;3.40;1.00;;;;;;4955781;29;20279;-71
2024/02/03 05:50:19;;;;;;;2.00;1.40;;;3.30;1.00;;;;;;4954855;28;20184;-72
2024/02/03 05:52:44;;;;;;;2.20;1.30;;;3.20;1.00;;;;;;4970652;28;20216;-70
2024/02/03 05:55:10;;;;;;;2.17;1.60;;;3.10;1.00;;;;;;4954560;29;20266;-70
2024/02/03 05:57:47;;;;;;;3.00;1.80;;;3.10;1.00;;;;;;4955422;29;20271;-70
2024/02/03 06:00:13;;;;;;;2.10;1.35;;;3.10;1.00;;;;;;4955119;29;20452;-70
2024/02/03 06:02:38;;;;;;;2.75;1.60;;;2.90;1.00;;;;;;4955285;28;20209;-70
2024/02/03 06:05:04;;;;;;;4.80;2.90;;;2.90;1.00;;;;;;4954002;29;20212;-71
2024/02/03 06:07:30;;;;;;;4.07;2.20;;;2.80;1.00;;;;;;4954919;29;20184;-72
2024/02/03 06:09:55;;;;;;;4.57;2.60;;;2.80;1.00;;;;;;4953844;29;20430;-72
2024/02/03 06:12:21;;;;;;;4.83;3.43;;;2.80;1.00;;;;;;4955137;28;20684;-71
2024/02/03 06:14:46;;;;;;;6.00;4.03;;;2.80;1.00;;;;;;4953702;29;20672;-71
2024/02/03 06:17:13;;;;;;;4.00;3.10;;;2.70;1.00;;;;;;4954855;29;20180;-71
2024/02/03 06:19:38;;;;;;;5.22;3.22;;;2.60;1.00;;;;;;4955095;29;20204;-71
2024/02/03 06:22:04;;;;;;;3.87;3.27;;;2.50;1.00;;;;;;4969830;28;20214;-71
2024/02/03 06:24:31;;;;;;;3.67;3.27;;;2.50;1.00;;;;;;4954877;29;20284;-71
2024/02/03 06:26:57;;;;;;;2.58;1.40;;;2.50;1.00;;;;;;4954561;29;20189;-71
2024/02/03 06:29:22;;;;;;;3.30;1.43;;;2.40;1.00;;;;;;4954696;29;20213;-72
2024/02/03 06:31:48;;;;;;;5.37;1.33;;;2.50;1.00;;;;;;4954457;28;20207;-71
2024/02/03 06:34:13;;;;;;;2.40;1.30;;;2.50;1.00;;;;;;4953551;29;20184;-71
2024/02/03 06:36:39;;;;;;;3.10;1.53;;;2.40;1.00;;;;;;4954333;29;20180;-72
2024/02/03 06:39:08;;;;;;;2.43;1.73;;;2.40;1.00;;;;;;4952127;28;20267;-72
2024/02/03 06:41:35;;;;;;;2.40;1.50;;;2.40;1.00;;;;;;4954606;28;20281;-72
2024/02/03 06:44:00;;;;;;;3.05;1.10;;;2.40;1.00;;;;;;4953022;29;20185;-72
2024/02/03 06:46:26;;;;;;;2.87;1.97;;;2.30;1.00;;;;;;4953208;29;20189;-72
2024/02/03 06:48:52;;;;;;;2.73;1.80;;;2.30;1.00;;;;;;4953299;29;20225;-71
2024/02/03 06:51:17;;;;;;;2.50;1.40;;;2.30;1.00;;;;;;4954139;28;20196;-71
2024/02/03 06:53:43;;;;;;;3.10;2.23;;;2.30;1.00;;;;;;4954313;29;20190;-71
2024/02/03 06:56:09;;;;;;;2.80;1.80;;;2.20;1.00;;;;;;4954039;29;20190;-71
2024/02/03 06:58:35;;;;;;;4.22;1.63;;;2.20;1.00;;;;;;4954021;29;20228;-71
2024/02/03 07:01:00;;;;;;;3.97;1.87;;;2.20;1.00;;;;;;4954112;28;20245;-71
2024/02/03 07:03:27;;;;;;;3.90;1.70;;;2.20;1.00;;;;;;4954101;29;20858;-71
2024/02/03 07:05:53;;;;;;;2.80;1.92;;;2.20;1.00;;;;;;4952660;29;20176;-71
2024/02/03 07:08:18;;;;;;;5.80;2.00;;;2.20;1.00;;;;;;4954297;29;20675;-71
2024/02/03 07:13:12;;;;;;;2.60;1.55;;;2.20;1.00;;;;;;4950873;28;20694;-69
2024/02/03 07:15:37;;;;;;;2.10;1.20;;;2.30;1.00;;;;;;4953537;29;20184;-68
2024/02/03 07:18:03;;;;;;;4.13;1.53;;;2.30;1.00;;;;;;4953421;28;20647;-69
2024/02/03 07:20:28;;;;;;;3.13;1.30;;;2.40;1.00;;;;;;4952458;28;20211;-69
2024/02/03 07:22:54;;;;;;;3.00;1.90;;;2.40;1.00;;;;;;4953494;28;20192;-69
2024/02/03 07:25:19;;;;;;;3.00;1.77;;;2.40;1.00;;;;;;4953877;28;20251;-68
2024/02/03 07:27:45;;;;;;;5.17;2.30;;;2.40;1.00;;;;;;4953561;28;20184;-69
2024/02/03 07:30:11;;;;;;;4.13;2.27;;;2.40;1.00;;;;;;4953777;28;20186;-69
2024/02/03 07:32:36;;;;;;;2.73;2.20;;;2.40;1.00;;;;;;4953826;28;20216;-69
2024/02/03 07:35:06;;;;;;;3.20;2.17;;;2.50;1.00;;;;;;4953520;28;20457;-68
2024/02/03 07:37:32;;;;;;;3.28;1.77;;;2.50;1.00;;;;;;4953433;28;20226;-68
2024/02/03 07:39:57;;;;;;;5.60;1.70;;;2.60;1.00;;;;;;4953264;28;20207;-69
2024/02/03 07:42:23;;;;;;;4.37;1.73;;;2.60;1.00;;;;;;4953369;28;20192;-69
2024/02/03 07:44:48;;;;;;;3.90;2.07;;;2.70;1.00;;;;;;4953464;28;20179;-69
2024/02/03 07:47:14;;;;;;;3.80;1.50;;;2.70;1.00;;;;;;4953257;28;20176;-69
2024/02/03 07:49:39;;;;;;;2.77;1.47;;;2.80;1.00;;;;;;4953174;28;20437;-70
2024/02/03 07:52:05;;;;;;;3.20;1.97;;;2.80;1.00;;;;;;4953528;28;20195;-69
2024/02/03 07:54:33;;;;;;;3.83;2.28;;;2.90;1.00;;;;;;4953328;28;20180;-69
2024/02/03 07:56:59;;;;;;;4.07;2.58;;;2.90;1.00;;;;;;4951876;29;20183;-69
2024/02/03 07:59:27;;;;;;;3.10;1.70;;;2.90;1.00;;;;;;4952961;28;20183;-69
2024/02/03 08:01:52;;;;;;;3.60;2.00;;;3.00;1.00;;;;;;4952978;28;20235;-69
2024/02/03 08:04:18;;;;;;;2.70;1.80;;;3.10;1.00;;;;;;4953203;28;20545;-69
2024/02/03 08:06:43;;;;;;;3.93;2.40;;;3.20;1.00;;;;;;4953047;28;20173;-69
2024/02/03 08:09:09;;;;;;;3.03;2.07;;;;;;;;;;4952104;29;20220;-69
2024/02/03 08:11:35;;;;;;;2.90;1.47;;;;;;;;;;4953257;28;20226;-70
2024/02/03 08:14:01;;;;;;;3.90;2.40;;;;;;;;;;4951957;28;20470;-69
2024/02/03 08:16:27;;;;;;;4.47;2.50;;;;;;;;;;4953411;28;20423;-69
2024/02/03 08:18:53;;;;;;;3.10;2.17;;;;;;;;;;4953432;28;20478;-69
2024/02/03 08:21:19;;;;;;;3.27;2.37;;;3.30;1.00;;;;;;4953200;28;20530;-69
2024/02/03 08:23:45;;;;;;;2.53;2.07;;;4.00;1.00;;;;;;4953037;28;20425;-68
2024/02/03 08:26:12;;;;;;;2.27;1.17;;;4.20;1.00;;;;;;4954046;28;20436;-69
2024/02/03 08:28:37;;;;;;;4.00;2.00;;;4.40;1.00;;;;;;4953341;28;20210;-68
2024/02/03 08:31:03;;;;;;;3.03;2.40;;;4.40;1.00;;;;;;4952983;28;20469;-68
2024/02/03 08:33:31;;;;;;;3.53;2.40;;;4.50;1.00;;;;;;4953218;28;20181;-68
2024/02/03 08:35:56;;;;;;;5.40;2.90;;;4.70;1.00;;;;;;4953071;28;20189;-68
2024/02/03 08:38:22;;;;;;;5.40;3.00;;;4.80;1.00;;;;;;4952978;28;20421;-69
2024/02/03 08:40:48;;;;;;;5.10;2.07;;;5.00;1.00;;;;;;4953353;28;20205;-69
2024/02/03 08:43:14;;;;;;;3.50;1.77;;;5.20;1.00;;;;;;4951563;28;20530;-69
2024/02/03 08:45:39;;;;;;;2.93;1.87;;;5.40;1.00;;;;;;4952912;28;20421;-68
2024/02/03 08:48:05;;;;;;;2.73;1.30;;;5.50;1.00;;;;;;4951608;28;20186;-69
2024/02/03 08:50:31;;;;;;;2.43;1.87;;;5.70;1.00;;;;;;4951413;29;20572;-69
2024/02/03 08:52:56;;;;;;;2.40;1.87;;;5.90;1.00;;;;;;4952663;28;20445;-69
2024/02/03 08:55:22;;;;;;;2.97;1.97;;;6.00;1.00;;;;;;4950968;29;20276;-69
2024/02/03 08:57:48;;;;;;;2.97;1.97;;;6.10;1.00;;;;;;4952188;28;20197;-69
2024/02/03 09:00:14;;;;;;;2.83;2.23;;;6.20;1.00;;;;;;4952399;28;20520;-69
2024/02/03 09:02:40;;;;;;;4.40;1.80;;;6.30;1.00;;;;;;4954589;28;20198;-69
2024/02/03 09:05:07;;;;;;;3.37;1.80;;;6.40;1.00;;;;;;4954867;29;20494;-68
2024/02/03 09:07:34;;;;;;;5.30;2.30;;;6.50;1.00;;;;;;4955705;28;20717;-69
2024/02/03 09:10:03;;;;;;;3.87;2.30;;;6.60;1.00;;;;;;4955774;28;20427;-69
2024/02/03 09:12:28;;;;;;;3.73;2.50;;;6.70;1.00;;;;;;4955866;28;20465;-68
2024/02/03 09:14:54;;;;;;;4.33;2.83;;;6.80;1.00;;;;;;4955920;28;20862;-69
2024/02/03 09:17:20;;;;;;;5.67;2.60;;;6.90;1.00;;;;;;4955408;28;20192;-70
2024/02/03 09:19:46;;;;;;;4.37;2.73;;;6.90;1.00;;;;;;4955604;28;20287;-69
2024/02/03 09:22:13;;;;;;;4.20;2.77;;;7.10;1.00;;;;;;4955814;28;20211;-69
2024/02/03 09:24:39;;;;;;;6.70;2.90;;;7.10;1.00;;;;;;4954477;28;20449;-69
2024/02/03 09:27:05;;;;;;;5.10;2.53;;;7.20;1.00;;;;;;4955665;28;20421;-69
2024/02/03 09:29:31;;;;;;;4.70;2.97;;;7.20;1.00;;;;;;4955522;28;20933;-69
2024/02/03 09:31:56;;;;;;;4.60;2.93;;;7.30;1.00;;;;;;4955957;28;20459;-69
2024/02/03 09:34:22;;;;;;;4.83;2.97;;;7.30;1.00;;;;;;4956350;28;20553;-70
2024/02/03 09:36:47;;;;;;;5.13;3.10;;;7.40;1.00;;;;;;4955808;28;20190;-69
2024/02/03 09:39:13;;;;;;;3.70;2.50;;;7.50;1.00;;;;;;4955831;28;20179;-70
2024/02/03 09:41:39;;;;;;;4.63;3.50;;;7.60;1.00;;;;;;4956185;28;20275;-70
2024/02/03 09:44:05;;;;;;;3.27;2.30;;;7.60;1.00;;;;;;4955470;28;20184;-69
2024/02/03 09:46:30;;;;;;;3.60;2.70;;;7.80;1.00;;;;;;4953685;28;20235;-69
2024/02/03 09:48:59;;;;;;;4.70;2.47;;;7.90;1.00;;;;;;4955143;28;20180;-69
2024/02/03 09:51:25;;;;;;;5.00;2.60;;;7.90;1.00;;;;;;4954921;28;20198;-69
2024/02/03 09:53:52;;;;;;;6.50;2.50;;;8.10;1.00;;;;;;4955157;28;20927;-69
2024/02/03 09:56:17;;;;;;;4.53;2.50;;;8.20;1.00;;;;;;4954847;28;20301;-68
2024/02/03 09:58:44;;;;;;;6.10;2.40;;;8.40;1.00;;;;;;4953727;28;20439;-68
2024/02/03 10:01:09;;;;;;;3.33;1.63;;;8.50;1.00;;;;;;4954692;28;20237;-69
2024/02/03 10:03:35;;;;;;;5.00;2.50;;;8.70;1.00;;;;;;4955188;28;20499;-68
2024/02/03 10:06:02;;;;;;;3.30;2.17;;;8.90;1.00;;;;;;4954736;28;20224;-68
2024/02/03 10:08:28;;;;;;;3.40;1.80;;;9.20;1.00;;;;;;4953716;29;20305;-68
2024/02/03 10:10:55;;;;;;;2.57;1.90;;;9.40;1.00;;;;;;4953258;29;20509;-69
2024/02/03 10:13:22;;;;;;;3.60;2.10;;;9.50;1.00;;;;;;4954579;28;20421;-69
2024/02/03 10:15:59;;;;;;;3.60;2.10;;;9.70;1.00;;;;;;4953632;29;20768;-68
2024/02/03 10:18:24;;;;;;;3.30;2.40;;;10.20;1.00;;;;;;4953870;28;20723;-68
2024/02/03 10:20:50;;;;;;;3.93;1.97;;;10.60;1.00;;;;;;4954335;28;20485;-69
2024/02/03 10:23:15;;;;;;;3.40;2.37;;;10.70;1.00;;;;;;4954526;28;20291;-69
2024/02/03 10:25:42;;;;;;;3.17;2.30;;;10.70;1.00;;;;;;4954242;28;20178;-68
2024/02/03 10:28:08;;;;;;;3.83;2.37;;;10.80;1.00;;;;;;4954678;28;20693;-69
2024/02/03 10:30:38;;;;;;;3.97;2.30;;;10.80;1.00;;;;;;4953150;29;20430;-69
2024/02/03 10:33:05;;;;;;;3.17;2.10;;;10.70;1.00;;;;;;4954451;28;20178;-68
2024/02/03 10:35:36;;;;;;;3.80;2.10;;;10.90;1.00;;;;;;4954263;28;20427;-69
2024/02/03 10:38:01;;;;;;;3.23;2.00;;;11.10;1.00;;;;;;4954174;28;20426;-69
2024/02/03 10:40:29;;;;;;;7.23;2.70;;;11.50;1.00;;;;;;4954032;28;20469;-68
2024/02/03 10:42:55;;;;;;;2.67;1.70;;;11.90;1.00;;;;;;4954746;28;20195;-69
2024/02/03 10:45:26;;;;;;;3.03;2.20;;;11.80;1.00;;;;;;4954094;28;20412;-68
2024/02/03 10:47:54;;;;;;;2.70;2.10;;;12.00;1.00;;;;;;4953897;28;20846;-69
2024/02/03 10:50:23;;;;;;;4.33;2.00;;;12.60;1.00;;;;;;4954182;28;20987;-69
2024/02/03 10:52:52;;;;;;;3.50;1.90;;;12.90;1.00;;;;;;4954187;28;20440;-69
2024/02/03 10:55:21;;;;;;;5.13;2.40;;;12.90;1.00;;;;;;4954191;28;20467;-69
2024/02/03 10:57:48;;;;;;;2.60;1.80;;;12.80;1.00;;;;;;4953765;28;20424;-69
2024/02/03 11:00:18;;;;;;;5.80;2.47;;;12.60;1.00;;;;;;4953626;28;20464;-69
2024/02/03 11:02:53;;;;;;;3.10;2.30;;;12.40;1.00;;;;;;4952313;28;20453;-69
2024/02/03 11:05:26;;;;;;;3.70;2.53;;;12.00;1.00;;;;;;4954419;28;20424;-69
2024/02/03 11:07:51;;;;;;;2.93;2.00;;;11.80;1.00;;;;;;4954366;28;20416;-67
2024/02/03 11:10:17;;;;;;;3.30;2.10;;;11.50;1.00;;;;;;4954197;28;20446;-69
2024/02/03 11:12:43;;;;;;;2.93;1.87;;;11.70;1.00;;;;;;4953706;28;20257;-69
2024/02/03 11:15:10;;;;;;;2.93;1.90;;;11.50;1.00;;;;;;4954104;28;20649;-68
2024/02/03 11:17:35;;;;;;;2.83;2.00;;;11.30;1.00;;;;;;4953520;29;20239;-69
2024/02/03 11:20:06;;;;;;;3.47;1.90;;;11.40;1.00;;;;;;4953913;28;20460;-69
2024/02/03 11:22:31;;;;;;;3.60;2.37;;;11.50;1.00;;;;;;4954056;28;20205;-69
2024/02/03 11:24:58;;;;;;;3.20;2.10;;;11.80;1.00;;;;;;4953520;28;20508;-69
2024/02/03 11:27:24;;;;;;;2.30;1.70;;;11.90;1.00;;;;;;4953247;28;20174;-68
2024/02/03 11:29:49;;;;;;;4.13;1.90;;;11.60;1.00;;;;;;4953370;28;20488;-69
2024/02/03 11:32:15;;;;;;;2.70;1.70;;;11.60;1.00;;;;;;4953386;28;20203;-68
2024/02/03 11:34:41;;;;;;;2.20;1.43;;;11.70;1.00;;;;;;4952415;29;20237;-68
2024/02/03 11:37:09;;;;;;;2.40;1.67;;;12.10;1.00;;;;;;4953571;28;20180;-70
2024/02/03 11:39:36;;;;;;;2.77;1.63;;;12.30;1.00;;;;;;4953307;28;20452;-68
2024/02/03 11:42:03;;;;;;;4.63;2.03;;;12.40;1.00;;;;;;4951968;29;20515;-69
2024/02/03 11:44:55;;;;;;;3.20;1.80;;;12.60;1.00;;;;;;4953306;28;20416;-69
2024/02/03 11:47:21;;;;;;;4.67;1.60;;;12.60;1.00;;;;;;4953115;28;20422;-69
2024/02/03 11:49:49;;;;;;;2.83;1.90;;;12.30;1.00;;;;;;4953168;28;20468;-69
2024/02/03 11:52:15;;;;;;;2.53;1.80;;;12.20;1.00;;;;;;4953036;28;20433;-69
2024/02/03 11:54:40;;;;;;;6.33;2.00;;;12.20;1.00;;;;;;4952133;29;20436;-69
2024/02/03 11:57:06;;;;;;;2.47;2.03;;;12.30;1.00;;;;;;4952818;28;21012;-69
2024/02/03 11:59:32;;;;;;;2.97;2.27;;;12.10;1.00;;;;;;4952959;28;20188;-69
2024/02/03 12:01:59;;;;;;;4.07;2.47;;;11.90;1.00;;;;;;4952898;28;20975;-69
2024/02/03 12:04:26;;;;;;;4.33;2.53;;;12.00;1.00;;;;;;4953173;28;20185;-69
2024/02/03 12:06:52;;;;;;;3.27;1.50;;;12.20;1.00;;;;;;4953081;28;20424;-69
2024/02/03 12:09:18;;;;;;;4.23;1.83;;;12.20;1.00;;;;;;4954186;28;20824;-69
2024/02/03 12:11:47;;;;;;;3.00;2.33;;;12.20;1.00;;;;;;4953160;28;20486;-69
2024/02/03 12:14:13;;;;;;;5.33;2.37;;;12.30;1.00;;;;;;4952971;28;20416;-68
2024/02/03 12:16:43;;;;;;;2.87;1.70;;;12.40;1.00;;;;;;4952739;28;20539;-67
2024/02/03 12:19:10;;;;;;;2.47;2.03;;;12.40;1.00;;;;;;4952992;28;20528;-69
2024/02/03 12:21:35;;;;;;;3.53;2.00;;;12.40;1.00;;;;;;4952535;28;20638;-69
2024/02/03 12:24:01;;;;;;;3.07;1.50;;;12.30;1.00;;;;;;4952749;28;20436;-68
2024/02/03 12:26:27;;;;;;;3.90;2.07;;;12.10;1.00;;;;;;4952634;28;20561;-69
2024/02/03 12:28:53;;;;;;;2.40;1.47;;;12.00;1.00;;;;;;4952974;28;20178;-69
2024/02/03 12:31:18;;;;;;;3.23;1.47;;;12.00;1.00;;;;;;4952747;28;20206;-68
2024/02/03 12:33:44;;;;;;;2.70;1.63;;;11.90;1.00;;;;;;4953398;28;20425;-69
2024/02/03 12:36:10;;;;;;;3.27;2.40;;;12.10;1.00;;;;;;4952567;28;20218;-69
2024/02/03 12:38:37;;;;;;;3.80;1.90;;;12.10;1.00;;;;;;4956795;28;20597;-69
2024/02/03 12:41:03;;;;;;;3.10;1.90;;;12.10;1.00;;;;;;4955071;29;20472;-68
2024/02/03 12:43:28;;;;;;;2.60;1.60;;;12.00;1.00;;;;;;4956633;28;20508;-70
2024/02/03 12:45:54;;;;;;;2.50;1.60;;;12.10;1.00;;;;;;4955046;29;20532;-68
2024/02/03 12:48:19;;;;;;;2.67;1.77;;;12.20;1.00;;;;;;4955120;29;20215;-68
2024/02/03 12:50:45;;;;;;;2.57;2.07;;;12.10;1.00;;;;;;4956352;28;20698;-68
2024/02/03 12:53:11;;;;;;;2.40;1.63;;;11.90;1.00;;;;;;4956601;28;20190;-68
2024/02/03 12:55:38;;;;;;;2.60;1.80;;;11.80;1.00;;;;;;4956308;28;20882;-68
2024/02/03 12:58:03;;;;;;;2.83;2.10;;;11.80;1.00;;;;;;4956229;28;20425;-71
2024/02/03 13:00:29;;;;;;;7.90;2.77;;;11.80;1.00;;;;;;4955980;28;20472;-69
2024/02/03 13:02:54;;;;;;;2.50;1.90;;;11.80;1.00;;;;;;4956133;28;20280;-68
2024/02/03 13:05:21;;;;;;;2.40;1.40;;;12.00;1.00;;;;;;4954859;29;20559;-70